Nearby METAR Reports

 

KNUQ - Moffett Nas/Mtn, California, USA
Distance from station: N 9mi, 14km
Updated: Wed, 14-Nov-2018 10:56pm PST
Smoke, Clear
Smoke, Clear
 Wind from calm
Wind: Calm
Temperature: 46°F , 8°C
Dew Point: 34°F , 1°C
Humidity: 62%
Barometer: 30.24 inHg , 1024 hPa
Summary: Smoke
Clouds: Clear
Visibility: 3 miles , 5 km
2018/11/15 06:56 KNUQ 150656Z 00000KT 3SM FU CLR 08/01 A3024 RMK AO2 SLP241 T00830006
KSJC - San Jose, California, USA
Distance from station: NE 9mi, 14km
Updated: Wed, 14-Nov-2018 10:53pm PST
Haze, Mostly cloudy
Haze, Mostly cloudy
 Wind from S
Wind: S 3 mph , 6 km/h
Temperature: 48°F , 9°C
Dew Point: 30°F , -1°C
Humidity: 50%
Barometer: 30.23 inHg , 1023.7 hPa
Summary: Haze
Clouds: Mostly Cloudy
Visibility: 3 miles , 5 km
Cloud details: Few Clouds 100 ft
Partly Cloudy 1000 ft
Mostly Cloudy 1900 ft
2018/11/15 06:53 KSJC 150653Z 17003KT 3SM HZ FEW001 SCT010 BKN019 09/M01 A3023 RMK AO2 SLP236 FU FEW001 FU SCT010 FU BKN019 T00941011
 
KRHV - San Jose/Reid, California, USA
Distance from station: ENE 12mi, 19km
Updated: Wed, 14-Nov-2018 2:48pm PST
NOT Current
Smoke, Clear
Smoke, Clear
 Wind from NNW
Wind: NNW 6 mph , 9 km/h
Temperature: 68°F , 20°C
Dew Point: 32°F , 0°C
Humidity: 26%
Barometer: 30.22 inHg , 1023.4 hPa
Summary: Smoke
Clouds: Clear
Visibility: 2 miles , 3 km
2018/11/14 22:48 KRHV 142248Z 34005KT 2SM FU SKC 20/00 A3022
KPAO - Palo Alto, California, USA
Distance from station: NNW 14mi, 23km
Updated: Wed, 14-Nov-2018 8:47pm PST
NOT Current
Smoke, Clear
Smoke, Clear
 Wind from calm
Wind: Calm
Temperature: 46°F , 8°C
Dew Point: 37°F , 3°C
Humidity: 71%
Barometer: 30.25 inHg , 1024.4 hPa
Summary: Smoke
Clouds: Clear
Visibility: 2 miles , 0 km
2018/11/15 04:47 KPAO 150447Z 00000KT 2 SM FU SKC 08/03 A3025 RMK LAST
 
KSQL - San Carlos Airpo, California, USA
Distance from station: NW 21mi, 34km
Updated: Wed, 14-Nov-2018 10:55pm PST
Haze, Overcast
Haze, Overcast
 Wind from calm
Wind: Calm
Barometer: 30.22 inHg , 1023.4 hPa
Summary: Haze
Clouds: Overcast
Visibility: 4 miles , 6 km
Cloud details: Overcast 1600 ft
2018/11/15 06:55 KSQL 150655Z AUTO 00000KT 4SM HZ OVC016 A3022 RMK AO2
KWVI - Watsonville, California, USA
Distance from station: SSE 27mi, 44km
Updated: Wed, 14-Nov-2018 10:53pm PST
Clear
Clear
 Wind from NNW
Wind: NNW 5 mph , 7 km/h
Temperature: 48°F , 9°C
Wind Chill: 46°F , 8°C
Dew Point: 25°F , -4°C
Humidity: 40%
Barometer: 30.22 inHg , 1023.4 hPa
Clouds: Clear
Visibility: 10 miles , 16 km
2018/11/15 06:53 KWVI 150653Z AUTO 33004KT 10SM CLR 09/M04 A3022 RMK AO2 SLP232 T00891044 $
 
KHWD - Hayward, California, USA
Distance from station: N 28mi, 44km
Updated: Wed, 14-Nov-2018 10:54pm PST
Haze, Smoke, Clear
Haze, Smoke, Clear
 Wind from ENE
Wind: ENE 3 mph , 6 km/h
Temperature: 48°F , 9°C
Dew Point: 21°F , -6°C
Humidity: 34%
Barometer: 30.23 inHg , 1023.7 hPa
Summary: Haze, Smoke
Clouds: Clear
Visibility: 2 1/2 miles , 4 km
2018/11/15 06:54 KHWD 150654Z AUTO 07003KT 2 1/2SM HZ FU CLR 09/M06 A3023 RMK AO2 SLP245 T00941056
KSFO - San Francisco, California, USA
Distance from station: NW 30mi, 49km
Updated: Wed, 14-Nov-2018 10:56pm PST
Haze, Mostly cloudy
Haze, Mostly cloudy
 Wind from calm
Wind: Calm
Temperature: 52°F , 11°C
Dew Point: 30°F , -1°C
Humidity: 44%
Barometer: 30.21 inHg , 1023 hPa
Summary: Haze
Clouds: Mostly Cloudy
Visibility: 4 miles , 6 km
Cloud details: Few Clouds 500 ft
Mostly Cloudy 2100 ft
2018/11/15 06:56 KSFO 150656Z 00000KT 4SM HZ FEW005 BKN021 11/M01 A3021 RMK AO2 SLP231 T01061011
 
KHAF - Half Moon Bay, California, USA
Distance from station: WNW 31mi, 50km
Updated: Wed, 14-Nov-2018 11:00pm PST
Haze, Overcast
Haze, Overcast
 Wind from calm
Wind: Calm
Temperature: 45°F , 7°C
Dew Point: 28°F , -2°C
Humidity: 53%
Barometer: 30.22 inHg , 1023.4 hPa
Summary: Haze
Clouds: Overcast
Visibility: 3 miles , 5 km
Cloud details: Few Clouds 300 ft
Mostly Cloudy 2100 ft
Overcast 4400 ft
2018/11/15 07:00 KHAF 150700Z AUTO 00000KT 3SM HZ FEW003 BKN021 OVC044 07/M02 A3022 RMK AO2
KOAK - Oakland, California, USA
Distance from station: NNW 31mi, 50km
Updated: Wed, 14-Nov-2018 10:53pm PST
Haze, Mostly cloudy
Haze, Mostly cloudy
 Wind from ESE
Wind: ESE 3 mph , 6 km/h
Temperature: 46°F , 8°C
Dew Point: 27°F , -3°C
Humidity: 46%
Barometer: 30.24 inHg , 1024 hPa
Summary: Haze
Clouds: Mostly Cloudy
Visibility: 2 1/2 miles , 4 km
Cloud details: Partly Cloudy 2100 ft
Mostly Cloudy 2500 ft
2018/11/15 06:53 KOAK 150653Z 11003KT 2 1/2SM HZ SCT021 BKN025 08/M03 A3024 RMK AO2 SLP238 FU SCT021 FU BKN025 T00781028
 
KLVK - Livermore, California, USA
Distance from station: NNE 31mi, 51km
Updated: Wed, 14-Nov-2018 10:53pm PST
Haze, Smoke, Clear
Haze, Smoke, Clear
 Wind from calm
Wind: Calm
Temperature: 43°F , 6°C
Dew Point: 19°F , -7°C
Humidity: 39%
Barometer: 30.23 inHg , 1023.7 hPa
Summary: Haze, Smoke
Clouds: Clear
Visibility: 2 miles , 3 km
2018/11/15 06:53 KLVK 150653Z AUTO 00000KT 2SM HZ FU CLR 06/M07 A3023 RMK AO2 SLP237 T00561072
KCVH - Hollister Muni, California, USA
Distance from station: SE 42mi, 68km
Updated: Wed, 14-Nov-2018 10:55pm PST
Haze, Clear
Haze, Clear
 Wind from calm
Wind: Calm
Temperature: 45°F , 7°C
Dew Point: 18°F , -8°C
Humidity: 34%
Barometer: 30.24 inHg , 1024 hPa
Summary: Haze
Clouds: Clear
Visibility: 6 miles , 10 km
2018/11/15 06:55 KCVH 150655Z AUTO 00000KT 6SM HZ CLR 07/M08 A3024 RMK A01
 
KSNS - Salinas, California, USA
Distance from station: SSE 48mi, 77km
Updated: Wed, 14-Nov-2018 10:53pm PST
Clear
Clear
 Wind from calm
Wind: Calm
Temperature: 45°F , 7°C
Dew Point: 30°F , -1°C
Humidity: 57%
Barometer: 30.21 inHg , 1023 hPa
Clouds: Clear
Visibility: 7 miles , 11 km
2018/11/15 06:53 KSNS 150653Z AUTO 00000KT 7SM CLR 07/M01 A3021 RMK AO2 SLP239 T00671006
KMRY - Monterey, California, USA
Distance from station: SSE 49mi, 78km
Updated: Wed, 14-Nov-2018 10:54pm PST
Clear
Clear
 Wind from E
Wind: E 8 mph , 13 km/h
Temperature: 48°F , 9°C
Wind Chill: 44°F , 7°C
Dew Point: 18°F , -8°C
Humidity: 29%
Barometer: 30.21 inHg , 1023 hPa
Clouds: Clear
Visibility: 10 miles , 16 km
2018/11/15 06:54 KMRY 150654Z AUTO 10007KT 10SM CLR 09/M08 A3021 RMK AO2 SLP241 T00891078
 
KCCR - Concord, California, USA
Distance from station: N 50mi, 81km
Updated: Wed, 14-Nov-2018 10:53pm PST
Haze, Smoke, Overcast
Haze, Smoke, Overcast
 Wind from SE
Wind: SE 3 mph , 6 km/h
Temperature: 46°F , 8°C
Dew Point: 25°F , -4°C
Humidity: 43%
Barometer: 30.23 inHg , 1023.7 hPa
Summary: Haze, Smoke
Clouds: Overcast
Visibility: 2 1/2 miles , 4 km
Cloud details: Overcast 4000 ft
2018/11/15 06:53 KCCR 150653Z AUTO 13003KT 2 1/2SM HZ FU OVC040 08/M04 A3023 RMK AO2 SLP221 T00781039 $

Metar display script from Saratoga-Weather.org